RUDE1 LCLK-HECA
Flight info
| Callsign | RUDE1 |
|---|---|
| Flight time | 0h 55m |
| Altitude | 40000 |
| Route | EMEDA DCT STEPA/N0465F410 N71 LAKTO N307 MELDO A16 CVO |
| Aircraft | CL60/M-SBDE1E2E3FGHIJ1J4J5J7M3RWXYZ/LB1V1D1 |
Departure
| Time | 2026-04-28 11:44 |
|---|---|
| Airport | Larnaca International Airport (LCLK) |
Arrival
| Time | 2026-04-28 12:39 |
|---|---|
| Airport | Cairo International Airport (HECA) |
| Time | Latitude | Longitude | Altitude | Speed | Heading |
|---|---|---|---|---|---|
| 2026-04-28 11:25 | 34.87618 | 33.62204 | 15 ft | 0 kts | 131° |
| 2026-04-28 11:38 | 34.87613 | 33.62222 | 15 ft | 4 kts | 77° |
| 2026-04-28 11:39 | 34.87647 | 33.62266 | 15 ft | 9 kts | 43° |
| 2026-04-28 11:39 | 34.87661 | 33.62327 | 15 ft | 8 kts | 129° |
| 2026-04-28 11:39 | 34.87666 | 33.62391 | 15 ft | 10 kts | 50° |
| 2026-04-28 11:39 | 34.87725 | 33.62464 | 16 ft | 13 kts | 46° |
| 2026-04-28 11:40 | 34.87802 | 33.62558 | 18 ft | 17 kts | 45° |
| 2026-04-28 11:40 | 34.87890 | 33.62666 | 23 ft | 17 kts | 44° |
| 2026-04-28 11:40 | 34.87971 | 33.62761 | 24 ft | 14 kts | 46° |
| 2026-04-28 11:40 | 34.88047 | 33.62856 | 26 ft | 16 kts | 45° |
| 2026-04-28 11:41 | 34.88131 | 33.62954 | 26 ft | 15 kts | 42° |
| 2026-04-28 11:41 | 34.88217 | 33.63067 | 21 ft | 16 kts | 45° |
| 2026-04-28 11:41 | 34.88295 | 33.63162 | 18 ft | 17 kts | 47° |
| 2026-04-28 11:41 | 34.88381 | 33.63266 | 19 ft | 10 kts | 45° |
| 2026-04-28 11:42 | 34.88442 | 33.63340 | 19 ft | 12 kts | 52° |
| 2026-04-28 11:42 | 34.88437 | 33.63395 | 19 ft | 7 kts | 140° |
| 2026-04-28 11:42 | 34.88401 | 33.63438 | 19 ft | 3 kts | 134° |
| 2026-04-28 11:42 | 34.88399 | 33.63440 | 19 ft | 0 kts | 134° |
| 2026-04-28 11:43 | 34.88385 | 33.63459 | 18 ft | 5 kts | 135° |
| 2026-04-28 11:43 | 34.88341 | 33.63511 | 18 ft | 11 kts | 141° |
| 2026-04-28 11:43 | 34.88275 | 33.63497 | 18 ft | 11 kts | 227° |
| 2026-04-28 11:44 | 34.88132 | 33.63322 | 18 ft | 71 kts | 225° |
| 2026-04-28 11:44 | 34.87541 | 33.62584 | 253 ft | 146 kts | 225° |
| 2026-04-28 11:44 | 34.86815 | 33.61708 | 1222 ft | 160 kts | 225° |
| 2026-04-28 11:44 | 34.85991 | 33.60770 | 2317 ft | 177 kts | 226° |
| 2026-04-28 11:45 | 34.85109 | 33.59701 | 3462 ft | 198 kts | 228° |
| 2026-04-28 11:45 | 34.84015 | 33.58357 | 4233 ft | 244 kts | 228° |
| 2026-04-28 11:45 | 34.82795 | 33.56854 | 5495 ft | 264 kts | 228° |
| 2026-04-28 11:45 | 34.81421 | 33.55371 | 6961 ft | 276 kts | 214° |
| 2026-04-28 11:46 | 34.79604 | 33.54726 | 8470 ft | 287 kts | 182° |
| 2026-04-28 11:46 | 34.77689 | 33.55364 | 9951 ft | 297 kts | 149° |
| 2026-04-28 11:46 | 34.76121 | 33.56968 | 11376 ft | 304 kts | 139° |
| 2026-04-28 11:46 | 34.74361 | 33.58256 | 12820 ft | 305 kts | 162° |
| 2026-04-28 11:47 | 34.72315 | 33.58779 | 14149 ft | 309 kts | 176° |
| 2026-04-28 11:47 | 34.70118 | 33.58673 | 15007 ft | 327 kts | 192° |
| 2026-04-28 11:47 | 34.67907 | 33.57696 | 15663 ft | 348 kts | 208° |
| 2026-04-28 11:47 | 34.65721 | 33.56281 | 15936 ft | 363 kts | 210° |
| 2026-04-28 11:48 | 34.63457 | 33.54803 | 16760 ft | 374 kts | 209° |
| 2026-04-28 11:48 | 34.61199 | 33.53333 | 18094 ft | 370 kts | 209° |
| 2026-04-28 11:48 | 34.58967 | 33.51883 | 19284 ft | 369 kts | 210° |
| 2026-04-28 11:48 | 34.56702 | 33.50412 | 20272 ft | 373 kts | 210° |
| 2026-04-28 11:49 | 34.54393 | 33.48913 | 21135 ft | 379 kts | 210° |
| 2026-04-28 11:49 | 34.52045 | 33.47392 | 21955 ft | 385 kts | 210° |
| 2026-04-28 11:49 | 34.49665 | 33.45850 | 22778 ft | 389 kts | 210° |
| 2026-04-28 11:49 | 34.47261 | 33.44295 | 23567 ft | 394 kts | 210° |
| 2026-04-28 11:50 | 34.44835 | 33.42728 | 24375 ft | 397 kts | 210° |
| 2026-04-28 11:50 | 34.42409 | 33.41161 | 25149 ft | 400 kts | 210° |
| 2026-04-28 11:50 | 34.39951 | 33.39575 | 25848 ft | 403 kts | 210° |
| 2026-04-28 11:50 | 34.37454 | 33.37966 | 26526 ft | 406 kts | 210° |
| 2026-04-28 11:51 | 34.34914 | 33.36330 | 27167 ft | 410 kts | 210° |
| 2026-04-28 11:51 | 34.32354 | 33.34682 | 27806 ft | 412 kts | 210° |
| 2026-04-28 11:51 | 34.29773 | 33.33023 | 28402 ft | 415 kts | 210° |
| 2026-04-28 11:51 | 34.27199 | 33.31368 | 28942 ft | 419 kts | 210° |
| 2026-04-28 11:52 | 34.24606 | 33.29704 | 29468 ft | 422 kts | 210° |
| 2026-04-28 11:52 | 34.21954 | 33.28003 | 29986 ft | 425 kts | 210° |
| 2026-04-28 11:52 | 34.19305 | 33.26305 | 30456 ft | 427 kts | 211° |
| 2026-04-28 11:52 | 34.16645 | 33.24600 | 30907 ft | 430 kts | 210° |
| 2026-04-28 11:53 | 34.13990 | 33.22901 | 31305 ft | 433 kts | 210° |
| 2026-04-28 11:53 | 34.11333 | 33.21202 | 31709 ft | 435 kts | 210° |
| 2026-04-28 11:53 | 34.08600 | 33.19455 | 32128 ft | 437 kts | 210° |
| 2026-04-28 11:53 | 34.05908 | 33.17736 | 32479 ft | 439 kts | 210° |
| 2026-04-28 11:54 | 34.03207 | 33.16013 | 32831 ft | 440 kts | 210° |
| 2026-04-28 11:54 | 34.00467 | 33.14266 | 33146 ft | 442 kts | 210° |
| 2026-04-28 11:54 | 33.97738 | 33.12527 | 33493 ft | 442 kts | 210° |
| 2026-04-28 11:54 | 33.94989 | 33.10777 | 33908 ft | 440 kts | 210° |
| 2026-04-28 11:55 | 33.92283 | 33.09056 | 34292 ft | 439 kts | 210° |
| 2026-04-28 11:55 | 33.89559 | 33.07325 | 34562 ft | 437 kts | 211° |
| 2026-04-28 11:55 | 33.86859 | 33.05611 | 34847 ft | 435 kts | 211° |
| 2026-04-28 11:55 | 33.84167 | 33.03902 | 35073 ft | 434 kts | 211° |
| 2026-04-28 11:56 | 33.81510 | 33.02216 | 35279 ft | 433 kts | 211° |
| 2026-04-28 11:56 | 33.78836 | 33.00521 | 35495 ft | 433 kts | 211° |
| 2026-04-28 11:56 | 33.76141 | 32.98814 | 35732 ft | 432 kts | 212° |
| 2026-04-28 11:56 | 33.73508 | 32.97148 | 35997 ft | 431 kts | 212° |
| 2026-04-28 11:57 | 33.70835 | 32.95457 | 36253 ft | 430 kts | 212° |
| 2026-04-28 11:57 | 33.68162 | 32.93767 | 36493 ft | 430 kts | 212° |
| 2026-04-28 11:57 | 33.65533 | 32.92106 | 36717 ft | 429 kts | 212° |
| 2026-04-28 11:57 | 33.62862 | 32.90420 | 36921 ft | 429 kts | 212° |
| 2026-04-28 11:58 | 33.60216 | 32.88751 | 37130 ft | 429 kts | 213° |
| 2026-04-28 11:58 | 33.57574 | 32.87085 | 37331 ft | 429 kts | 213° |
| 2026-04-28 11:58 | 33.54922 | 32.85415 | 37515 ft | 429 kts | 213° |
| 2026-04-28 11:58 | 33.52298 | 32.83763 | 37701 ft | 428 kts | 213° |
| 2026-04-28 11:59 | 33.49664 | 32.82106 | 37870 ft | 428 kts | 213° |
| 2026-04-28 11:59 | 33.47025 | 32.80447 | 38045 ft | 428 kts | 213° |
| 2026-04-28 11:59 | 33.44369 | 32.78778 | 38200 ft | 428 kts | 213° |
| 2026-04-28 11:59 | 33.41727 | 32.77119 | 38367 ft | 428 kts | 213° |
| 2026-04-28 12:00 | 33.39082 | 32.75460 | 38553 ft | 427 kts | 213° |
| 2026-04-28 12:00 | 33.36447 | 32.73809 | 38708 ft | 427 kts | 213° |
| 2026-04-28 12:00 | 33.33805 | 32.72154 | 38859 ft | 427 kts | 213° |
| 2026-04-28 12:00 | 33.31186 | 32.70513 | 38975 ft | 428 kts | 213° |
| 2026-04-28 12:01 | 33.28524 | 32.68847 | 39077 ft | 429 kts | 213° |
| 2026-04-28 12:01 | 33.25880 | 32.67194 | 39143 ft | 430 kts | 213° |
| 2026-04-28 12:01 | 33.23202 | 32.65521 | 39255 ft | 431 kts | 213° |
| 2026-04-28 12:01 | 33.20551 | 32.63866 | 39421 ft | 429 kts | 213° |
| 2026-04-28 12:02 | 33.17908 | 32.62217 | 39568 ft | 429 kts | 213° |
| 2026-04-28 12:02 | 33.15261 | 32.60567 | 39686 ft | 429 kts | 213° |
| 2026-04-28 12:02 | 33.09940 | 32.57253 | 39891 ft | 428 kts | 213° |
| 2026-04-28 12:03 | 33.07314 | 32.55620 | 39992 ft | 428 kts | 214° |
| 2026-04-28 12:03 | 33.04633 | 32.53952 | 39988 ft | 430 kts | 214° |
| 2026-04-28 12:03 | 32.99290 | 32.50632 | 39989 ft | 434 kts | 213° |
| 2026-04-28 12:04 | 32.93941 | 32.47313 | 39991 ft | 436 kts | 214° |
| 2026-04-28 12:04 | 32.88509 | 32.43895 | 39994 ft | 437 kts | 217° |
| 2026-04-28 12:05 | 32.83411 | 32.39930 | 39991 ft | 438 kts | 219° |
| 2026-04-28 12:05 | 32.78327 | 32.35938 | 39994 ft | 441 kts | 219° |
| 2026-04-28 12:06 | 32.73183 | 32.31907 | 39989 ft | 445 kts | 219° |
| 2026-04-28 12:06 | 32.67968 | 32.27826 | 39980 ft | 449 kts | 219° |
| 2026-04-28 12:07 | 32.62707 | 32.23718 | 39977 ft | 454 kts | 219° |
| 2026-04-28 12:07 | 32.57410 | 32.19589 | 39972 ft | 456 kts | 219° |
| 2026-04-28 12:08 | 32.52087 | 32.15447 | 39979 ft | 455 kts | 219° |
| 2026-04-28 12:08 | 32.46791 | 32.11349 | 39988 ft | 454 kts | 218° |
| 2026-04-28 12:09 | 32.41524 | 32.07287 | 39980 ft | 454 kts | 219° |
| 2026-04-28 12:09 | 32.36241 | 32.03182 | 39983 ft | 454 kts | 219° |
| 2026-04-28 12:10 | 32.30962 | 31.99083 | 39982 ft | 454 kts | 219° |
| 2026-04-28 12:10 | 32.25644 | 31.94970 | 39983 ft | 455 kts | 219° |
| 2026-04-28 12:11 | 32.20337 | 31.90877 | 39990 ft | 455 kts | 219° |
| 2026-04-28 12:11 | 32.14922 | 31.86703 | 39985 ft | 455 kts | 219° |
| 2026-04-28 12:12 | 32.09442 | 31.82492 | 39988 ft | 440 kts | 219° |
| 2026-04-28 12:12 | 32.04248 | 31.78503 | 39989 ft | 432 kts | 219° |
| 2026-04-28 12:13 | 31.99189 | 31.74620 | 39989 ft | 431 kts | 219° |
| 2026-04-28 12:13 | 31.94135 | 31.70745 | 39989 ft | 431 kts | 219° |
| 2026-04-28 12:14 | 31.89109 | 31.66897 | 39984 ft | 431 kts | 220° |
| 2026-04-28 12:14 | 31.84074 | 31.63049 | 39983 ft | 431 kts | 219° |
| 2026-04-28 12:15 | 31.79037 | 31.59204 | 39984 ft | 431 kts | 220° |
| 2026-04-28 12:15 | 31.74003 | 31.55368 | 39982 ft | 430 kts | 220° |
| 2026-04-28 12:16 | 31.71473 | 31.53439 | 39684 ft | 436 kts | 220° |
| 2026-04-28 12:16 | 31.68931 | 31.51503 | 39190 ft | 438 kts | 220° |
| 2026-04-28 12:16 | 31.66389 | 31.49572 | 38704 ft | 434 kts | 220° |
| 2026-04-28 12:16 | 31.63853 | 31.47646 | 38208 ft | 432 kts | 220° |
| 2026-04-28 12:17 | 31.61327 | 31.45728 | 37752 ft | 431 kts | 220° |
| 2026-04-28 12:17 | 31.58835 | 31.43837 | 37264 ft | 430 kts | 220° |
| 2026-04-28 12:17 | 31.56297 | 31.41913 | 36761 ft | 430 kts | 219° |
| 2026-04-28 12:17 | 31.53809 | 31.40027 | 36264 ft | 430 kts | 219° |
| 2026-04-28 12:18 | 31.51290 | 31.38119 | 35763 ft | 430 kts | 219° |
| 2026-04-28 12:18 | 31.48771 | 31.36212 | 35258 ft | 431 kts | 219° |
| 2026-04-28 12:18 | 31.46234 | 31.34292 | 34760 ft | 432 kts | 218° |
| 2026-04-28 12:18 | 31.43730 | 31.32401 | 34233 ft | 427 kts | 218° |
| 2026-04-28 12:19 | 31.41241 | 31.30522 | 33690 ft | 424 kts | 218° |
| 2026-04-28 12:19 | 31.38776 | 31.28661 | 33166 ft | 422 kts | 218° |
| 2026-04-28 12:19 | 31.36308 | 31.26800 | 32606 ft | 419 kts | 218° |
| 2026-04-28 12:19 | 31.33865 | 31.24959 | 32047 ft | 415 kts | 218° |
| 2026-04-28 12:20 | 31.31428 | 31.23140 | 31498 ft | 411 kts | 216° |
| 2026-04-28 12:20 | 31.28903 | 31.21570 | 30957 ft | 412 kts | 210° |
| 2026-04-28 12:20 | 31.26229 | 31.20350 | 30413 ft | 413 kts | 203° |
| 2026-04-28 12:20 | 31.23414 | 31.19501 | 29804 ft | 414 kts | 196° |
| 2026-04-28 12:21 | 31.20570 | 31.19060 | 29246 ft | 415 kts | 189° |
| 2026-04-28 12:21 | 31.17680 | 31.19015 | 28638 ft | 417 kts | 182° |
| 2026-04-28 12:21 | 31.14757 | 31.19378 | 27917 ft | 419 kts | 176° |
| 2026-04-28 12:21 | 31.11905 | 31.19910 | 27195 ft | 418 kts | 175° |
| 2026-04-28 12:22 | 31.09008 | 31.20450 | 26461 ft | 417 kts | 175° |
| 2026-04-28 12:22 | 31.06137 | 31.20983 | 25733 ft | 415 kts | 175° |
| 2026-04-28 12:22 | 31.03289 | 31.21512 | 25012 ft | 414 kts | 175° |
| 2026-04-28 12:22 | 31.00446 | 31.22040 | 24260 ft | 412 kts | 175° |
| 2026-04-28 12:23 | 30.97619 | 31.22565 | 23493 ft | 410 kts | 175° |
| 2026-04-28 12:23 | 30.94811 | 31.23086 | 22704 ft | 406 kts | 175° |
| 2026-04-28 12:23 | 30.92077 | 31.23595 | 21887 ft | 395 kts | 175° |
| 2026-04-28 12:23 | 30.89393 | 31.24095 | 21124 ft | 383 kts | 175° |
| 2026-04-28 12:24 | 30.86796 | 31.24578 | 20661 ft | 370 kts | 175° |
| 2026-04-28 12:24 | 30.84248 | 31.25050 | 20105 ft | 366 kts | 175° |
| 2026-04-28 12:24 | 30.81753 | 31.25512 | 19635 ft | 359 kts | 175° |
| 2026-04-28 12:24 | 30.79287 | 31.25969 | 19151 ft | 358 kts | 175° |
| 2026-04-28 12:25 | 30.76821 | 31.26423 | 18670 ft | 356 kts | 175° |
| 2026-04-28 12:25 | 30.74398 | 31.26870 | 18198 ft | 353 kts | 175° |
| 2026-04-28 12:25 | 30.71983 | 31.27315 | 17736 ft | 352 kts | 174° |
| 2026-04-28 12:25 | 30.69571 | 31.27760 | 17268 ft | 349 kts | 174° |
| 2026-04-28 12:26 | 30.67167 | 31.28202 | 16807 ft | 346 kts | 174° |
| 2026-04-28 12:26 | 30.64794 | 31.28583 | 16346 ft | 341 kts | 181° |
| 2026-04-28 12:26 | 30.62504 | 31.28186 | 15923 ft | 329 kts | 202° |
| 2026-04-28 12:26 | 30.60363 | 31.27260 | 15480 ft | 327 kts | 204° |
| 2026-04-28 12:27 | 30.58246 | 31.26289 | 15026 ft | 325 kts | 204° |
| 2026-04-28 12:27 | 30.56170 | 31.25321 | 14577 ft | 323 kts | 205° |
| 2026-04-28 12:27 | 30.54063 | 31.24329 | 14124 ft | 322 kts | 205° |
| 2026-04-28 12:27 | 30.52000 | 31.23343 | 13681 ft | 320 kts | 204° |
| 2026-04-28 12:28 | 30.49951 | 31.22349 | 13224 ft | 318 kts | 205° |
| 2026-04-28 12:28 | 30.47908 | 31.21356 | 12771 ft | 317 kts | 205° |
| 2026-04-28 12:28 | 30.45871 | 31.20368 | 12326 ft | 316 kts | 205° |
| 2026-04-28 12:28 | 30.43849 | 31.19384 | 11874 ft | 314 kts | 204° |
| 2026-04-28 12:29 | 30.39832 | 31.17423 | 10969 ft | 309 kts | 205° |
| 2026-04-28 12:29 | 30.37870 | 31.16457 | 10517 ft | 306 kts | 205° |
| 2026-04-28 12:29 | 30.35920 | 31.15494 | 10224 ft | 297 kts | 204° |
| 2026-04-28 12:30 | 30.33975 | 31.14875 | 9946 ft | 289 kts | 184° |
| 2026-04-28 12:30 | 30.31962 | 31.14971 | 9201 ft | 293 kts | 175° |
| 2026-04-28 12:30 | 30.29931 | 31.15198 | 8495 ft | 293 kts | 174° |
| 2026-04-28 12:30 | 30.27916 | 31.15428 | 7872 ft | 290 kts | 174° |
| 2026-04-28 12:31 | 30.25910 | 31.15653 | 7243 ft | 287 kts | 174° |
| 2026-04-28 12:31 | 30.23929 | 31.15871 | 6634 ft | 284 kts | 174° |
| 2026-04-28 12:31 | 30.21984 | 31.16081 | 6069 ft | 280 kts | 174° |
| 2026-04-28 12:31 | 30.20052 | 31.16294 | 5483 ft | 278 kts | 174° |
| 2026-04-28 12:32 | 30.18123 | 31.16513 | 4872 ft | 275 kts | 175° |
| 2026-04-28 12:32 | 30.16232 | 31.16729 | 4276 ft | 273 kts | 174° |
| 2026-04-28 12:32 | 30.14347 | 31.16942 | 3846 ft | 262 kts | 175° |
| 2026-04-28 12:32 | 30.12591 | 31.17147 | 3792 ft | 246 kts | 174° |
| 2026-04-28 12:33 | 30.10898 | 31.17344 | 3700 ft | 241 kts | 175° |
| 2026-04-28 12:33 | 30.09214 | 31.17541 | 3528 ft | 242 kts | 174° |
| 2026-04-28 12:33 | 30.07539 | 31.17731 | 3281 ft | 242 kts | 174° |
| 2026-04-28 12:33 | 30.05874 | 31.17922 | 3037 ft | 239 kts | 174° |
| 2026-04-28 12:34 | 30.04206 | 31.18113 | 2783 ft | 238 kts | 174° |
| 2026-04-28 12:34 | 30.02564 | 31.18301 | 2534 ft | 236 kts | 174° |
| 2026-04-28 12:34 | 30.00978 | 31.18780 | 2452 ft | 233 kts | 147° |
| 2026-04-28 12:34 | 29.99929 | 31.20122 | 2459 ft | 225 kts | 111° |
| 2026-04-28 12:35 | 29.99506 | 31.21775 | 2477 ft | 206 kts | 97° |
| 2026-04-28 12:35 | 29.99348 | 31.23366 | 2472 ft | 197 kts | 86° |
| 2026-04-28 12:35 | 29.99374 | 31.24937 | 2458 ft | 192 kts | 80° |
| 2026-04-28 12:35 | 29.99889 | 31.26297 | 2452 ft | 183 kts | 48° |
| 2026-04-28 12:36 | 30.00706 | 31.27434 | 2463 ft | 183 kts | 47° |
| 2026-04-28 12:36 | 30.01511 | 31.28562 | 2464 ft | 183 kts | 46° |
| 2026-04-28 12:36 | 30.02346 | 31.29686 | 2469 ft | 183 kts | 45° |
| 2026-04-28 12:36 | 30.03166 | 31.30782 | 2306 ft | 176 kts | 45° |
| 2026-04-28 12:37 | 30.03948 | 31.31826 | 2118 ft | 165 kts | 45° |
| 2026-04-28 12:37 | 30.04694 | 31.32816 | 1909 ft | 163 kts | 45° |
| 2026-04-28 12:37 | 30.05435 | 31.33801 | 1680 ft | 158 kts | 45° |
| 2026-04-28 12:37 | 30.06155 | 31.34754 | 1484 ft | 156 kts | 45° |
| 2026-04-28 12:38 | 30.06838 | 31.35664 | 1340 ft | 142 kts | 45° |
| 2026-04-28 12:38 | 30.07493 | 31.36534 | 1143 ft | 143 kts | 45° |
| 2026-04-28 12:38 | 30.08144 | 31.37396 | 923 ft | 141 kts | 45° |
| 2026-04-28 12:38 | 30.08784 | 31.38252 | 750 ft | 136 kts | 45° |
| 2026-04-28 12:39 | 30.09412 | 31.39082 | 589 ft | 132 kts | 44° |
| 2026-04-28 12:39 | 30.10019 | 31.39884 | 412 ft | 132 kts | 45° |
| 2026-04-28 12:39 | 30.10522 | 31.40554 | 388 ft | 74 kts | 49° |
| 2026-04-28 12:39 | 30.10737 | 31.40835 | 387 ft | 45 kts | 49° |
| 2026-04-28 12:40 | 30.10955 | 31.41135 | 387 ft | 47 kts | 48° |
| 2026-04-28 12:40 | 30.11167 | 31.41413 | 387 ft | 44 kts | 47° |
| 2026-04-28 12:40 | 30.11386 | 31.41583 | 387 ft | 32 kts | 20° |
| 2026-04-28 12:40 | 30.11543 | 31.41628 | 387 ft | 11 kts | 342° |
| 2026-04-28 12:41 | 30.11638 | 31.41590 | 387 ft | 15 kts | 342° |
| 2026-04-28 12:41 | 30.11755 | 31.41549 | 387 ft | 19 kts | 342° |
| 2026-04-28 12:41 | 30.11886 | 31.41504 | 387 ft | 20 kts | 342° |
| 2026-04-28 12:41 | 30.12025 | 31.41452 | 387 ft | 21 kts | 343° |
| 2026-04-28 12:42 | 30.12144 | 31.41440 | 387 ft | 13 kts | 29° |
| 2026-04-28 12:42 | 30.12223 | 31.41449 | 387 ft | 11 kts | 343° |
| 2026-04-28 12:42 | 30.12314 | 31.41416 | 387 ft | 15 kts | 341° |
| 2026-04-28 12:42 | 30.12426 | 31.41371 | 387 ft | 18 kts | 339° |
| 2026-04-28 12:43 | 30.12544 | 31.41327 | 386 ft | 17 kts | 345° |
| 2026-04-28 12:43 | 30.12676 | 31.41296 | 386 ft | 20 kts | 4° |
| 2026-04-28 12:43 | 30.12702 | 31.41354 | 386 ft | 8 kts | 115° |
| 2026-04-28 12:43 | 30.12676 | 31.41431 | 386 ft | 10 kts | 94° |
| 2026-04-28 12:44 | 30.12697 | 31.41528 | 386 ft | 10 kts | 79° |
| 2026-04-28 12:44 | 30.12661 | 31.41538 | 387 ft | 5 kts | 224° |
| 2026-04-28 12:44 | 30.12660 | 31.41518 | 386 ft | 0 kts | 305° |